Taiki Maru — JI3464 — position and weather

sailwx.info

Track history (hours):
 
Tides and Currents Weather Stations Pressure Air Temp Water Temp Dewpoint Dewpoint Depression Visibility Wind Speed Wind Dir Waves Ship Positions

Taiki Maru

Last reported at 2017-Nov-19 19:33 UTC. Time now 2017-Nov-21 15:45 UTC.
Position N 34°50' E 139°16'.

Length 93 m; draft 5.2 m.

Type: Cargo ship. MMSI: 431300622.

Date/timePositionNaut miles runAvg speedWind from/ knotsBaromVisibWave heightAir tempDewpointWater temp
2017-Nov-19 19:33N 34°50' E 139°16'1713.9
2017-Nov-19 18:20N 34°60' E 139°32'514.7
2017-Nov-19 18:00N 35°03' E 139°37'714.9
2017-Nov-19 17:30N 35°08' E 139°44'713.1
2017-Nov-19 17:00N 35°14' E 139°46'611.2
2017-Nov-19 16:30N 35°19' E 139°43'612.2
2017-Nov-19 16:00N 35°25' E 139°44'714.2
2017-Nov-19 15:30N 35°29' E 139°51'5 9.1
2017-Nov-19 14:59N 35°29' E 139°57'0 0.1
2017-Nov-19 14:23N 35°29' E 139°57'0 0.0
2017-Nov-19 13:59N 35°29' E 139°57'0 0.0
2017-Nov-19 13:29N 35°29' E 139°57'0 0.1
2017-Nov-19 12:53N 35°29' E 139°57'0 0.0
2017-Nov-19 12:29N 35°29' E 139°57'0 0.1
2017-Nov-19 11:47N 35°29' E 139°57'0 0.0
2017-Nov-19 08:26N 35°29' E 139°57'0 0.0
2017-Nov-19 07:56N 35°30' E 139°57'0 0.0
2017-Nov-19 07:29N 35°29' E 139°57'0 0.0
2017-Nov-19 06:50N 35°29' E 139°57'0 0.1
2017-Nov-19 06:29N 35°30' E 139°57'0 0.0
2017-Nov-19 05:14N 35°29' E 139°57'0 0.0
2017-Nov-19 04:56N 35°29' E 139°57'0 0.2
2017-Nov-19 04:30N 35°29' E 139°57'2 0.5
2017-Nov-18 23:58N 35°28' E 139°59'2 4.3
2017-Nov-18 23:30N 35°29' E 139°57'0 1.0
2017-Nov-18 23:00N 35°30' E 139°57'3 6.8
2017-Nov-18 22:30N 35°29' E 139°53'4 8.8
2017-Nov-18 22:00N 35°27' E 139°48'5 9.8
2017-Nov-18 21:30N 35°26' E 139°42'3 5.8
2017-Nov-18 21:00N 35°29' E 139°40'0 0.0
2017-Nov-18 20:27N 35°29' E 139°40'0 0.0
2017-Nov-18 20:00N 35°29' E 139°40'0 0.0
2017-Nov-18 19:30N 35°29' E 139°40'0 0.0
2017-Nov-18 19:00N 35°29' E 139°40'0 0.0
2017-Nov-18 18:30N 35°29' E 139°40'0 0.0
2017-Nov-18 18:00N 35°29' E 139°40'0 0.0
2017-Nov-18 17:30N 35°29' E 139°40'0 0.0
2017-Nov-18 17:00N 35°29' E 139°40'0 0.0
2017-Nov-18 16:27N 35°29' E 139°40'0 0.0
2017-Nov-18 16:00N 35°29' E 139°40'0 0.0
2017-Nov-18 15:30N 35°29' E 139°40'0 0.0
2017-Nov-18 15:00N 35°29' E 139°40'0 0.0
2017-Nov-18 14:30N 35°29' E 139°40'0 0.0
2017-Nov-18 14:00N 35°29' E 139°40'0 0.0
2017-Nov-18 13:30N 35°29' E 139°40'0 0.0
2017-Nov-18 13:00N 35°29' E 139°40'0 0.0
2017-Nov-18 12:30N 35°29' E 139°40'0 0.0
2017-Nov-18 12:00N 35°29' E 139°40'0 0.0
2017-Nov-18 11:30N 35°29' E 139°40'0 0.0
2017-Nov-18 11:00N 35°29' E 139°40'0 0.0
2017-Nov-18 10:30N 35°29' E 139°40'0 0.0
2017-Nov-18 10:00N 35°29' E 139°40'0 0.0
2017-Nov-18 09:24N 35°29' E 139°40'0 0.0
2017-Nov-18 09:00N 35°29' E 139°40'0 0.0
2017-Nov-18 08:30N 35°29' E 139°40'0 0.0
2017-Nov-18 08:00N 35°29' E 139°40'0 0.0
2017-Nov-18 07:30N 35°29' E 139°40'0 0.0
2017-Nov-18 06:54N 35°29' E 139°40'0 0.0
2017-Nov-18 06:30N 35°29' E 139°40'0 0.0
2017-Nov-18 06:00N 35°29' E 139°40'0 0.0
2017-Nov-18 05:30N 35°29' E 139°40'0 0.0
2017-Nov-18 05:00N 35°29' E 139°40'0 0.0
2017-Nov-18 04:30N 35°29' E 139°40'0 0.0
2017-Nov-18 04:00N 35°29' E 139°40'2 3.8
2017-Nov-18 03:30N 35°27' E 139°41'2 3.0
2017-Nov-18 02:59N 35°26' E 139°42'0 0.0
2017-Nov-18 02:29N 35°26' E 139°42'0 0.0
2017-Nov-18 01:59N 35°26' E 139°42'0 0.0
2017-Nov-18 01:29N 35°26' E 139°42'0 0.0
2017-Nov-18 00:59N 35°26' E 139°42'0 0.1
2017-Nov-18 00:29N 35°26' E 139°42'0 0.1
2017-Nov-17 23:59N 35°26' E 139°42'0 0.1
2017-Nov-17 23:29N 35°25' E 139°42'0 0.0
2017-Nov-17 22:59N 35°25' E 139°42'0 0.0
2017-Nov-17 22:29N 35°25' E 139°42'0 0.0
2017-Nov-17 21:59N 35°25' E 139°42'0 0.0
2017-Nov-17 21:29N 35°25' E 139°42'0 0.0
2017-Nov-17 20:56N 35°25' E 139°42'0 0.0
2017-Nov-17 20:29N 35°25' E 139°42'0 0.0
2017-Nov-17 19:59N 35°25' E 139°42'0 0.0
2017-Nov-17 19:29N 35°25' E 139°42'0 0.0
2017-Nov-17 18:59N 35°25' E 139°42'0 0.0
2017-Nov-17 18:29N 35°25' E 139°42'0 0.0
2017-Nov-17 17:59N 35°25' E 139°42'0 0.1
2017-Nov-17 17:29N 35°26' E 139°42'0 0.1
2017-Nov-17 16:59N 35°26' E 139°42'0 0.0
2017-Nov-17 16:29N 35°26' E 139°42'0 0.1
2017-Nov-17 15:59N 35°26' E 139°42'0 0.0
2017-Nov-17 15:29N 35°26' E 139°42'0 0.0
2017-Nov-17 14:59N 35°26' E 139°42'0 0.0
2017-Nov-17 14:29N 35°26' E 139°42'0 0.0
2017-Nov-17 13:59N 35°26' E 139°42'0 0.0
2017-Nov-17 13:29N 35°26' E 139°42'0 0.0
2017-Nov-17 12:59N 35°26' E 139°42'0 0.1
2017-Nov-17 12:29N 35°26' E 139°42'0 0.0
2017-Nov-17 12:00N 35°26' E 139°42'2 4.3
2017-Nov-17 11:31N 35°23' E 139°42'611.5
2017-Nov-17 11:00N 35°18' E 139°45'510.3
2017-Nov-17 10:30N 35°13' E 139°47'611.8
2017-Nov-17 10:00N 35°07' E 139°45'612.4
2017-Nov-17 09:30N 35°02' E 139°41'612.7
2017-Nov-17 09:00N 34°59' E 139°35'233 4.9
2017-Nov-15 09:52N 34°06' E 134°60'513.5
2017-Nov-15 09:30N 34°11' E 135°02'511.0
2017-Nov-15 09:01N 34°14' E 135°07'1 1.5
2017-Nov-15 08:29N 34°14' E 135°08'0 0.0
2017-Nov-15 07:59N 34°14' E 135°08'0 0.0
2017-Nov-15 07:29N 34°14' E 135°08'0 0.0
2017-Nov-15 06:56N 34°14' E 135°08'0 0.0
2017-Nov-15 06:29N 34°14' E 135°08'0 0.1
2017-Nov-15 05:56N 34°14' E 135°08'0 0.1
2017-Nov-15 05:26N 34°14' E 135°08'0 0.0
2017-Nov-15 04:59N 34°14' E 135°08'0 0.0
2017-Nov-15 04:26N 34°14' E 135°08'0 0.0
2017-Nov-15 03:59N 34°14' E 135°08'0 0.0
2017-Nov-15 03:29N 34°14' E 135°08'0 0.0
2017-Nov-15 02:59N 34°14' E 135°08'0 0.0
2017-Nov-15 02:29N 34°14' E 135°08'0 0.0
2017-Nov-15 01:59N 34°14' E 135°08'0 0.0
2017-Nov-15 01:26N 34°14' E 135°08'0 0.1
2017-Nov-15 00:59N 34°14' E 135°08'0 0.0
2017-Nov-15 00:29N 34°14' E 135°08'0 0.1
2017-Nov-14 23:59N 34°14' E 135°08'0 0.1
2017-Nov-14 23:29N 34°14' E 135°08'0 0.1
2017-Nov-14 22:59N 34°14' E 135°08'0 0.0
2017-Nov-14 22:29N 34°14' E 135°08'0 0.0
2017-Nov-14 21:59N 34°14' E 135°08'0 0.0
2017-Nov-14 21:29N 34°14' E 135°08'0 0.0
2017-Nov-14 20:59N 34°14' E 135°08'0 0.0
2017-Nov-14 20:29N 34°14' E 135°08'0 0.0
2017-Nov-14 19:59N 34°14' E 135°08'0 0.0
2017-Nov-14 19:23N 34°14' E 135°08'0 0.0
2017-Nov-14 18:59N 34°14' E 135°08'0 0.0
2017-Nov-14 18:29N 34°14' E 135°08'0 0.6
2017-Nov-14 18:00N 34°14' E 135°08'2 4.1
2017-Nov-14 17:30N 34°12' E 135°06'1 2.6
2017-Nov-14 16:58N 34°11' E 135°07'0 0.1
2017-Nov-14 16:28N 34°11' E 135°07'0 0.0
2017-Nov-14 15:58N 34°11' E 135°07'0 0.0
2017-Nov-14 15:28N 34°11' E 135°07'0 0.0
2017-Nov-14 14:58N 34°11' E 135°07'0 0.0
2017-Nov-14 14:25N 34°11' E 135°07'0 0.0
2017-Nov-14 13:55N 34°11' E 135°07'0 0.0
2017-Nov-14 13:28N 34°11' E 135°07'0 0.1
2017-Nov-14 12:58N 34°11' E 135°07'0 0.1
2017-Nov-14 12:28N 34°11' E 135°07'0 0.6
2017-Nov-14 12:00N 34°11' E 135°06'510.4
2017-Nov-14 11:30N 34°14' E 135°01'1410.9
2017-Nov-14 10:15N 34°28' E 135°01'311.9
2017-Nov-14 09:59N 34°31' E 135°02'510.3
2017-Nov-14 09:30N 34°36' E 135°03'5 9.1
2017-Nov-14 08:54N 34°36' E 134°56'  
Track history (hours):
 
Tides and Currents Weather Stations Pressure Air Temp Water Temp Dewpoint Dewpoint Depression Visibility Wind Speed Wind Dir Waves Ship Positions

Taiki Maru

Last reported at 2017-Nov-19 19:33 UTC. Time now 2017-Nov-21 15:45 UTC.
Position N 34°50' E 139°16'.

Length 93 m; draft 5.2 m.

Type: Cargo ship. MMSI: 431300622.

Date/timePositionNaut miles runAvg speedWind from/ knotsBaromVisibWave heightAir tempDewpointWater temp
2017-Nov-19 19:33N 34°50' E 139°16'1713.9
2017-Nov-19 18:20N 34°60' E 139°32'514.7
2017-Nov-19 18:00N 35°03' E 139°37'714.9
2017-Nov-19 17:30N 35°08' E 139°44'713.1
2017-Nov-19 17:00N 35°14' E 139°46'611.2
2017-Nov-19 16:30N 35°19' E 139°43'612.2
2017-Nov-19 16:00N 35°25' E 139°44'714.2
2017-Nov-19 15:30N 35°29' E 139°51'5 9.1
2017-Nov-19 14:59N 35°29' E 139°57'0 0.1
2017-Nov-19 14:23N 35°29' E 139°57'0 0.0
2017-Nov-19 13:59N 35°29' E 139°57'0 0.0
2017-Nov-19 13:29N 35°29' E 139°57'0 0.1
2017-Nov-19 12:53N 35°29' E 139°57'0 0.0
2017-Nov-19 12:29N 35°29' E 139°57'0 0.1
2017-Nov-19 11:47N 35°29' E 139°57'0 0.0
2017-Nov-19 08:26N 35°29' E 139°57'0 0.0
2017-Nov-19 07:56N 35°30' E 139°57'0 0.0
2017-Nov-19 07:29N 35°29' E 139°57'0 0.0
2017-Nov-19 06:50N 35°29' E 139°57'0 0.1
2017-Nov-19 06:29N 35°30' E 139°57'0 0.0
2017-Nov-19 05:14N 35°29' E 139°57'0 0.0
2017-Nov-19 04:56N 35°29' E 139°57'0 0.2
2017-Nov-19 04:30N 35°29' E 139°57'2 0.5
2017-Nov-18 23:58N 35°28' E 139°59'2 4.3
2017-Nov-18 23:30N 35°29' E 139°57'0 1.0
2017-Nov-18 23:00N 35°30' E 139°57'3 6.8
2017-Nov-18 22:30N 35°29' E 139°53'4 8.8
2017-Nov-18 22:00N 35°27' E 139°48'5 9.8
2017-Nov-18 21:30N 35°26' E 139°42'3 5.8
2017-Nov-18 21:00N 35°29' E 139°40'0 0.0
2017-Nov-18 20:27N 35°29' E 139°40'0 0.0
2017-Nov-18 20:00N 35°29' E 139°40'0 0.0
2017-Nov-18 19:30N 35°29' E 139°40'0 0.0
2017-Nov-18 19:00N 35°29' E 139°40'0 0.0
2017-Nov-18 18:30N 35°29' E 139°40'0 0.0
2017-Nov-18 18:00N 35°29' E 139°40'0 0.0
2017-Nov-18 17:30N 35°29' E 139°40'0 0.0
2017-Nov-18 17:00N 35°29' E 139°40'0 0.0
2017-Nov-18 16:27N 35°29' E 139°40'0 0.0
2017-Nov-18 16:00N 35°29' E 139°40'0 0.0
2017-Nov-18 15:30N 35°29' E 139°40'0 0.0
2017-Nov-18 15:00N 35°29' E 139°40'0 0.0
2017-Nov-18 14:30N 35°29' E 139°40'0 0.0
2017-Nov-18 14:00N 35°29' E 139°40'0 0.0
2017-Nov-18 13:30N 35°29' E 139°40'0 0.0
2017-Nov-18 13:00N 35°29' E 139°40'0 0.0
2017-Nov-18 12:30N 35°29' E 139°40'0 0.0
2017-Nov-18 12:00N 35°29' E 139°40'0 0.0
2017-Nov-18 11:30N 35°29' E 139°40'0 0.0
2017-Nov-18 11:00N 35°29' E 139°40'0 0.0
2017-Nov-18 10:30N 35°29' E 139°40'0 0.0
2017-Nov-18 10:00N 35°29' E 139°40'0 0.0
2017-Nov-18 09:24N 35°29' E 139°40'0 0.0
2017-Nov-18 09:00N 35°29' E 139°40'0 0.0
2017-Nov-18 08:30N 35°29' E 139°40'0 0.0
2017-Nov-18 08:00N 35°29' E 139°40'0 0.0
2017-Nov-18 07:30N 35°29' E 139°40'0 0.0
2017-Nov-18 06:54N 35°29' E 139°40'0 0.0
2017-Nov-18 06:30N 35°29' E 139°40'0 0.0
2017-Nov-18 06:00N 35°29' E 139°40'0 0.0
2017-Nov-18 05:30N 35°29' E 139°40'0 0.0
2017-Nov-18 05:00N 35°29' E 139°40'0 0.0
2017-Nov-18 04:30N 35°29' E 139°40'0 0.0
2017-Nov-18 04:00N 35°29' E 139°40'2 3.8
2017-Nov-18 03:30N 35°27' E 139°41'2 3.0
2017-Nov-18 02:59N 35°26' E 139°42'0 0.0
2017-Nov-18 02:29N 35°26' E 139°42'0 0.0
2017-Nov-18 01:59N 35°26' E 139°42'0 0.0
2017-Nov-18 01:29N 35°26' E 139°42'0 0.0
2017-Nov-18 00:59N 35°26' E 139°42'0 0.1
2017-Nov-18 00:29N 35°26' E 139°42'0 0.1
2017-Nov-17 23:59N 35°26' E 139°42'0 0.1
2017-Nov-17 23:29N 35°25' E 139°42'0 0.0
2017-Nov-17 22:59N 35°25' E 139°42'0 0.0
2017-Nov-17 22:29N 35°25' E 139°42'0 0.0
2017-Nov-17 21:59N 35°25' E 139°42'0 0.0
2017-Nov-17 21:29N 35°25' E 139°42'0 0.0
2017-Nov-17 20:56N 35°25' E 139°42'0 0.0
2017-Nov-17 20:29N 35°25' E 139°42'0 0.0
2017-Nov-17 19:59N 35°25' E 139°42'0 0.0
2017-Nov-17 19:29N 35°25' E 139°42'0 0.0
2017-Nov-17 18:59N 35°25' E 139°42'0 0.0
2017-Nov-17 18:29N 35°25' E 139°42'0 0.0
2017-Nov-17 17:59N 35°25' E 139°42'0 0.1
2017-Nov-17 17:29N 35°26' E 139°42'0 0.1
2017-Nov-17 16:59N 35°26' E 139°42'0 0.0
2017-Nov-17 16:29N 35°26' E 139°42'0 0.1
2017-Nov-17 15:59N 35°26' E 139°42'0 0.0
2017-Nov-17 15:29N 35°26' E 139°42'0 0.0
2017-Nov-17 14:59N 35°26' E 139°42'0 0.0
2017-Nov-17 14:29N 35°26' E 139°42'0 0.0
2017-Nov-17 13:59N 35°26' E 139°42'0 0.0
2017-Nov-17 13:29N 35°26' E 139°42'0 0.0
2017-Nov-17 12:59N 35°26' E 139°42'0 0.1
2017-Nov-17 12:29N 35°26' E 139°42'0 0.0
2017-Nov-17 12:00N 35°26' E 139°42'2 4.3
2017-Nov-17 11:31N 35°23' E 139°42'611.5
2017-Nov-17 11:00N 35°18' E 139°45'510.3
2017-Nov-17 10:30N 35°13' E 139°47'611.8
2017-Nov-17 10:00N 35°07' E 139°45'612.4
2017-Nov-17 09:30N 35°02' E 139°41'612.7
2017-Nov-17 09:00N 34°59' E 139°35'233 4.9
2017-Nov-15 09:52N 34°06' E 134°60'513.5
2017-Nov-15 09:30N 34°11' E 135°02'511.0
2017-Nov-15 09:01N 34°14' E 135°07'1 1.5
2017-Nov-15 08:29N 34°14' E 135°08'0 0.0
2017-Nov-15 07:59N 34°14' E 135°08'0 0.0
2017-Nov-15 07:29N 34°14' E 135°08'0 0.0
2017-Nov-15 06:56N 34°14' E 135°08'0 0.0
2017-Nov-15 06:29N 34°14' E 135°08'0 0.1
2017-Nov-15 05:56N 34°14' E 135°08'0 0.1
2017-Nov-15 05:26N 34°14' E 135°08'0 0.0
2017-Nov-15 04:59N 34°14' E 135°08'0 0.0
2017-Nov-15 04:26N 34°14' E 135°08'0 0.0
2017-Nov-15 03:59N 34°14' E 135°08'0 0.0
2017-Nov-15 03:29N 34°14' E 135°08'0 0.0
2017-Nov-15 02:59N 34°14' E 135°08'0 0.0
2017-Nov-15 02:29N 34°14' E 135°08'0 0.0
2017-Nov-15 01:59N 34°14' E 135°08'0 0.0
2017-Nov-15 01:26N 34°14' E 135°08'0 0.1
2017-Nov-15 00:59N 34°14' E 135°08'0 0.0
2017-Nov-15 00:29N 34°14' E 135°08'0 0.1
2017-Nov-14 23:59N 34°14' E 135°08'0 0.1
2017-Nov-14 23:29N 34°14' E 135°08'0 0.1
2017-Nov-14 22:59N 34°14' E 135°08'0 0.0
2017-Nov-14 22:29N 34°14' E 135°08'0 0.0
2017-Nov-14 21:59N 34°14' E 135°08'0 0.0
2017-Nov-14 21:29N 34°14' E 135°08'0 0.0
2017-Nov-14 20:59N 34°14' E 135°08'0 0.0
2017-Nov-14 20:29N 34°14' E 135°08'0 0.0
2017-Nov-14 19:59N 34°14' E 135°08'0 0.0
2017-Nov-14 19:23N 34°14' E 135°08'0 0.0
2017-Nov-14 18:59N 34°14' E 135°08'0 0.0
2017-Nov-14 18:29N 34°14' E 135°08'0 0.6
2017-Nov-14 18:00N 34°14' E 135°08'2 4.1
2017-Nov-14 17:30N 34°12' E 135°06'1 2.6
2017-Nov-14 16:58N 34°11' E 135°07'0 0.1
2017-Nov-14 16:28N 34°11' E 135°07'0 0.0
2017-Nov-14 15:58N 34°11' E 135°07'0 0.0
2017-Nov-14 15:28N 34°11' E 135°07'0 0.0
2017-Nov-14 14:58N 34°11' E 135°07'0 0.0
2017-Nov-14 14:25N 34°11' E 135°07'0 0.0
2017-Nov-14 13:55N 34°11' E 135°07'0 0.0
2017-Nov-14 13:28N 34°11' E 135°07'0 0.1
2017-Nov-14 12:58N 34°11' E 135°07'0 0.1
2017-Nov-14 12:28N 34°11' E 135°07'0 0.6
2017-Nov-14 12:00N 34°11' E 135°06'510.4
2017-Nov-14 11:30N 34°14' E 135°01'1410.9
2017-Nov-14 10:15N 34°28' E 135°01'311.9
2017-Nov-14 09:59N 34°31' E 135°02'510.3
2017-Nov-14 09:30N 34°36' E 135°03'5 9.1
2017-Nov-14 08:54N 34°36' E 134°56'  

Dump ship's entire track history